createdAt,value
2019-05-14T00:02:22.472Z,10.24
2019-05-14T00:04:51.191Z,10.24
2019-05-14T00:07:19.220Z,10.25
2019-05-14T00:09:47.056Z,10.20
2019-05-14T00:12:14.832Z,10.21
2019-05-14T00:14:43.808Z,10.20
2019-05-14T00:17:11.883Z,10.28
2019-05-14T00:19:41.680Z,10.23
2019-05-14T00:22:11.319Z,10.17
2019-05-14T00:24:41.291Z,10.09
2019-05-14T00:27:11.221Z,10.04
2019-05-14T00:29:38.526Z,9.94
2019-05-14T00:32:06.308Z,9.94
2019-05-14T00:34:34.085Z,9.93
2019-05-14T00:37:01.887Z,9.86
2019-05-14T00:39:31.836Z,9.81
2019-05-14T00:42:01.638Z,9.74
2019-05-14T00:44:29.095Z,9.67
2019-05-14T00:46:56.887Z,9.57
2019-05-14T00:49:24.710Z,9.42
2019-05-14T00:51:52.521Z,9.31
2019-05-14T00:54:21.536Z,9.25
2019-05-14T00:56:49.403Z,9.15
2019-05-14T00:59:17.208Z,9.03
2019-05-14T01:01:45.014Z,8.95
2019-05-14T01:04:12.824Z,8.93
2019-05-14T01:06:42.088Z,8.90
2019-05-14T01:09:11.412Z,8.88
2019-05-14T01:11:41.569Z,8.85
2019-05-14T01:14:09.052Z,8.78
2019-05-14T01:16:36.839Z,8.79
2019-05-14T01:19:04.620Z,8.74
2019-05-14T01:21:32.420Z,8.70
2019-05-14T01:24:02.069Z,8.59
2019-05-14T01:26:31.096Z,8.54
2019-05-14T01:29:01.247Z,8.47
2019-05-14T01:31:31.273Z,8.43
2019-05-14T01:33:58.309Z,8.38
2019-05-14T01:36:26.188Z,8.34
2019-05-14T01:38:53.980Z,8.25
2019-05-14T01:41:22.379Z,8.21
2019-05-14T01:43:51.268Z,8.16
2019-05-14T01:46:21.051Z,8.13
2019-05-14T01:48:49.000Z,8.04
2019-05-14T01:51:16.803Z,8.04
2019-05-14T01:53:44.599Z,8.04
2019-05-14T01:56:12.431Z,8.00
2019-05-14T01:58:41.662Z,7.93
2019-05-14T02:01:11.861Z,7.91
2019-05-14T02:03:41.099Z,7.85
2019-05-14T02:06:09.233Z,7.80
2019-05-14T02:08:37.035Z,7.74
2019-05-14T02:11:04.866Z,7.76
2019-05-14T02:13:32.634Z,7.68
2019-05-14T02:16:01.421Z,7.62
2019-05-14T02:18:31.125Z,7.59
2019-05-14T02:21:01.353Z,7.57
2019-05-14T02:23:28.793Z,7.55
2019-05-14T02:25:56.573Z,7.54
2019-05-14T02:28:24.404Z,7.47
2019-05-14T02:30:58.085Z,7.40
2019-05-14T02:33:21.886Z,7.38
2019-05-14T02:35:49.689Z,7.40
2019-05-14T02:38:19.499Z,7.47
2019-05-14T02:40:49.467Z,7.48
2019-05-14T02:43:19.870Z,7.40
2019-05-14T02:46:04.548Z,7.34
2019-05-14T02:48:16.328Z,7.33
2019-05-14T02:50:44.097Z,7.30
2019-05-14T02:53:11.912Z,7.23
2019-05-14T02:55:39.706Z,7.23
2019-05-14T02:58:09.929Z,7.17
2019-05-14T03:00:40.466Z,7.12
2019-05-14T03:03:09.668Z,7.10
2019-05-14T03:05:39.891Z,7.06
2019-05-14T03:08:08.999Z,7.07
2019-05-14T03:10:36.350Z,7.04
2019-05-14T03:13:04.177Z,7.02
2019-05-14T03:15:31.942Z,7.01
2019-05-14T03:18:00.199Z,7.03
2019-05-14T03:20:28.804Z,6.94
2019-05-14T03:23:05.217Z,6.90
2019-05-14T03:25:29.750Z,6.85
2019-05-14T03:27:59.613Z,6.85
2019-05-14T03:30:31.643Z,6.89
2019-05-14T03:33:01.943Z,6.91
2019-05-14T03:35:39.442Z,6.88
2019-05-14T03:37:55.631Z,6.85
2019-05-14T03:40:23.435Z,6.79
2019-05-14T03:42:51.241Z,6.78
2019-05-14T03:45:19.629Z,6.70
2019-05-14T03:47:50.412Z,6.69
2019-05-14T03:50:19.168Z,6.68
2019-05-14T03:52:49.546Z,6.67
2019-05-14T03:55:19.931Z,6.68
2019-05-14T03:57:49.773Z,6.70
2019-05-14T04:00:20.025Z,6.72
2019-05-14T04:02:49.065Z,6.69
2019-05-14T04:05:19.744Z,6.62
2019-05-14T04:07:50.218Z,6.56
2019-05-14T04:10:19.474Z,6.55
2019-05-14T04:12:49.376Z,6.53
2019-05-14T04:15:19.329Z,6.51
2019-05-14T04:17:50.118Z,6.50
2019-05-14T04:20:19.701Z,6.53
2019-05-14T04:22:51.299Z,6.55
2019-05-14T04:25:19.589Z,6.56
2019-05-14T04:27:52.581Z,6.59
2019-05-14T04:30:23.942Z,6.58
2019-05-14T04:32:52.447Z,6.62
2019-05-14T04:35:20.651Z,6.63
2019-05-14T04:37:49.543Z,6.65
2019-05-14T04:40:18.967Z,6.71
2019-05-14T04:42:50.030Z,6.73
2019-05-14T04:45:19.673Z,6.82
2019-05-14T04:47:49.542Z,6.98
2019-05-14T04:50:16.168Z,7.03
2019-05-14T04:52:44.276Z,7.03
2019-05-14T04:55:12.090Z,7.04
2019-05-14T04:57:39.926Z,7.03
2019-05-14T05:00:11.687Z,7.04
2019-05-14T05:02:39.729Z,7.13
2019-05-14T05:05:09.429Z,7.13
2019-05-14T05:07:39.424Z,7.17
2019-05-14T05:10:10.159Z,7.23
2019-05-14T05:12:38.753Z,7.35
2019-05-14T05:15:09.390Z,7.47
2019-05-14T05:17:46.621Z,7.72
2019-05-14T05:20:09.593Z,8.28
2019-05-14T05:22:36.193Z,8.74
2019-05-14T05:25:04.394Z,9.01
2019-05-14T05:27:32.178Z,9.55
2019-05-14T05:29:59.987Z,10.08
2019-05-14T05:32:28.541Z,10.59
2019-05-14T05:34:58.652Z,10.82
2019-05-14T05:37:26.286Z,10.93
2019-05-14T05:39:54.051Z,11.36
2019-05-14T05:42:21.985Z,11.61
2019-05-14T05:44:49.787Z,12.29
2019-05-14T05:47:18.287Z,13.22
2019-05-14T05:49:48.568Z,14.25
2019-05-14T05:52:15.959Z,13.92
2019-05-14T05:54:43.819Z,13.98
2019-05-14T05:57:11.619Z,14.48
2019-05-14T05:59:39.576Z,15.62
2019-05-14T06:02:09.305Z,16.06
2019-05-14T06:04:39.364Z,17.15
2019-05-14T06:07:08.839Z,16.86
2019-05-14T06:09:38.188Z,16.55
2019-05-14T06:12:08.721Z,17.06
2019-05-14T06:14:38.225Z,18.48
2019-05-14T06:17:08.319Z,16.98
2019-05-14T06:19:38.166Z,17.66
2019-05-14T06:22:06.380Z,19.33
2019-05-14T06:24:34.135Z,20.34
2019-05-14T06:27:01.999Z,20.06
2019-05-14T06:29:29.885Z,20.11
2019-05-14T06:31:58.881Z,21.05
2019-05-14T06:34:28.996Z,21.76
2019-05-14T06:36:58.942Z,22.04
2019-05-14T06:39:28.267Z,22.40
2019-05-14T06:41:58.338Z,21.96
2019-05-14T06:44:29.236Z,21.88
2019-05-14T06:46:56.320Z,23.39
2019-05-14T06:49:24.141Z,23.50
2019-05-14T06:51:52.031Z,24.12
2019-05-14T06:54:19.909Z,24.45
2019-05-14T06:56:48.831Z,25.24
2019-05-14T06:59:18.199Z,24.87
2019-05-14T07:01:46.177Z,24.53
2019-05-14T07:04:13.970Z,24.04
2019-05-14T07:06:41.794Z,23.54
2019-05-14T07:09:09.657Z,22.18
2019-05-14T07:11:38.907Z,24.23
2019-05-14T07:14:11.254Z,24.80
2019-05-14T07:16:38.997Z,26.01
2019-05-14T07:19:06.617Z,26.61
2019-05-14T07:21:34.468Z,24.02
2019-05-14T07:24:02.275Z,19.77
2019-05-14T07:26:30.131Z,18.30
2019-05-14T07:28:59.119Z,20.69
2019-05-14T07:31:29.057Z,23.57
2019-05-14T07:33:58.219Z,24.71
2019-05-14T07:36:29.299Z,27.83
2019-05-14T07:39:00.026Z,30.40
2019-05-14T07:41:28.446Z,28.56
2019-05-14T07:43:58.609Z,26.35
2019-05-14T07:46:28.361Z,23.25
2019-05-14T07:49:07.220Z,21.89
2019-05-14T07:51:28.183Z,23.56
2019-05-14T07:53:57.850Z,24.07
2019-05-14T07:56:25.533Z,25.19
2019-05-14T07:58:53.333Z,25.32
2019-05-14T08:01:21.090Z,25.27
2019-05-14T08:03:49.186Z,22.76
2019-05-14T08:06:18.892Z,22.18
2019-05-14T08:08:49.367Z,21.99
2019-05-14T08:11:18.927Z,25.81
2019-05-14T08:13:46.306Z,23.24
2019-05-14T08:16:14.122Z,22.11
2019-05-14T08:18:41.964Z,25.24
2019-05-14T08:21:09.901Z,28.05
2019-05-14T08:23:39.279Z,26.90
2019-05-14T08:26:07.965Z,25.19
2019-05-14T08:28:38.034Z,20.76
2019-05-14T08:31:05.608Z,17.62
2019-05-14T08:33:33.479Z,16.39
2019-05-14T08:36:03.002Z,16.15
2019-05-14T08:38:30.806Z,17.52
2019-05-14T08:40:59.041Z,18.13
2019-05-14T08:43:29.243Z,17.53
2019-05-14T08:45:58.556Z,17.18
2019-05-14T08:48:26.414Z,16.86
2019-05-14T08:50:54.233Z,16.93
2019-05-14T08:53:22.064Z,16.80
2019-05-14T08:55:49.966Z,18.13
2019-05-14T08:58:20.143Z,17.51
2019-05-14T09:00:48.263Z,16.17
2019-05-14T09:03:16.278Z,16.39
2019-05-14T09:05:44.134Z,17.53
2019-05-14T09:08:11.924Z,20.52
2019-05-14T09:10:40.412Z,21.01
2019-05-14T09:13:08.611Z,21.51
2019-05-14T09:15:38.468Z,23.65
2019-05-14T09:18:06.339Z,25.69
2019-05-14T09:20:34.131Z,29.17
2019-05-14T09:23:01.930Z,29.56
2019-05-14T09:25:29.791Z,25.91
2019-05-14T09:27:58.594Z,23.70
2019-05-14T09:30:28.915Z,26.76
2019-05-14T09:32:59.163Z,29.16
2019-05-14T09:35:26.148Z,30.58
2019-05-14T09:37:53.980Z,29.51
2019-05-14T09:40:21.820Z,26.23
2019-05-14T09:42:50.162Z,25.31
2019-05-14T09:45:18.913Z,26.28
2019-05-14T09:47:50.302Z,28.04
2019-05-14T09:50:22.827Z,27.75
2019-05-14T09:52:49.441Z,30.72
2019-05-14T09:55:18.155Z,33.06
2019-05-14T09:57:46.041Z,34.64
2019-05-14T10:00:14.737Z,33.46
2019-05-14T10:02:42.645Z,36.70
2019-05-14T10:05:10.620Z,35.57
2019-05-14T10:07:39.145Z,36.58
2019-05-14T10:10:08.184Z,35.25
2019-05-14T10:12:47.822Z,34.31
2019-05-14T10:15:08.830Z,31.12
2019-05-14T10:17:39.252Z,27.15
2019-05-14T10:20:08.789Z,22.29
2019-05-14T10:22:36.517Z,19.60
2019-05-14T10:25:05.075Z,17.37
2019-05-14T10:27:32.899Z,16.47
2019-05-14T10:30:00.643Z,15.80
2019-05-14T10:32:29.470Z,16.34
2019-05-14T10:34:59.023Z,19.73
2019-05-14T10:37:28.759Z,25.76
2019-05-14T10:39:58.634Z,30.02
2019-05-14T10:42:28.964Z,29.16
2019-05-14T10:44:58.534Z,28.67
2019-05-14T10:47:25.875Z,27.05
2019-05-14T10:49:53.691Z,22.90
2019-05-14T10:52:21.563Z,22.90
2019-05-14T10:54:55.959Z,24.52
2019-05-14T10:57:19.114Z,24.98
2019-05-14T10:59:46.897Z,27.05
2019-05-14T11:02:14.718Z,30.71
2019-05-14T11:04:42.514Z,33.07
2019-05-14T11:07:10.300Z,31.79
2019-05-14T11:09:38.288Z,28.48
2019-05-14T11:12:06.109Z,25.74
2019-05-14T11:14:33.925Z,24.05
2019-05-14T11:17:01.749Z,25.33
2019-05-14T11:19:30.589Z,31.25
2019-05-14T11:21:58.411Z,36.05
2019-05-14T11:24:26.305Z,39.06
2019-05-14T11:26:54.088Z,41.03
2019-05-14T11:29:21.868Z,36.80
2019-05-14T11:31:49.809Z,32.55
2019-05-14T11:34:19.290Z,30.49
2019-05-14T11:36:49.479Z,28.56
2019-05-14T11:39:18.131Z,29.38
2019-05-14T11:41:46.062Z,33.09
2019-05-14T11:44:13.832Z,31.36
2019-05-14T11:46:51.022Z,28.03
2019-05-14T11:49:11.391Z,26.07
2019-05-14T11:51:59.533Z,24.25
2019-05-14T11:54:09.556Z,22.81
2019-05-14T11:56:41.769Z,21.62
2019-05-14T11:59:08.590Z,20.00
2019-05-14T12:01:39.055Z,19.46
2019-05-14T12:04:08.810Z,19.26
2019-05-14T12:06:38.778Z,19.33
2019-05-14T12:09:11.394Z,20.20
2019-05-14T12:11:38.347Z,20.21
2019-05-14T12:14:08.939Z,21.51
2019-05-14T12:16:36.302Z,26.62
2019-05-14T12:19:04.147Z,27.08
2019-05-14T12:21:31.939Z,29.49
2019-05-14T12:24:04.664Z,32.03
2019-05-14T12:26:29.468Z,33.25
2019-05-14T12:28:59.474Z,35.74
2019-05-14T12:31:28.961Z,36.30
2019-05-14T12:33:58.361Z,35.03
2019-05-14T12:36:29.051Z,35.48
2019-05-14T12:38:58.962Z,39.53
2019-05-14T12:41:25.810Z,40.52
2019-05-14T12:43:53.611Z,38.10
2019-05-14T12:46:21.488Z,30.44
2019-05-14T12:48:49.670Z,26.98
2019-05-14T12:51:18.573Z,26.41
2019-05-14T12:53:48.832Z,26.12
2019-05-14T12:56:18.842Z,24.55
2019-05-14T12:58:46.151Z,23.13
2019-05-14T13:01:15.674Z,21.78
2019-05-14T13:03:43.496Z,23.45
2019-05-14T13:06:11.348Z,26.20
2019-05-14T13:08:39.312Z,25.50
2019-05-14T13:11:09.684Z,26.37
2019-05-14T13:13:42.425Z,27.07
2019-05-14T13:16:09.180Z,27.70
2019-05-14T13:18:38.783Z,28.98
2019-05-14T13:21:06.757Z,27.64
2019-05-14T13:23:34.564Z,30.11
2019-05-14T13:26:02.455Z,32.26
2019-05-14T13:28:30.348Z,30.17
2019-05-14T13:30:59.663Z,25.70
2019-05-14T13:33:28.446Z,22.04
2019-05-14T13:35:59.165Z,19.08
2019-05-14T13:38:26.059Z,17.89
2019-05-14T13:40:53.828Z,17.30
2019-05-14T13:43:21.674Z,17.27
2019-05-14T13:45:49.616Z,16.88
2019-05-14T13:48:18.864Z,16.30
2019-05-14T13:50:49.105Z,17.33
2019-05-14T13:53:18.863Z,19.04
2019-05-14T13:55:50.612Z,21.33
2019-05-14T13:58:16.000Z,22.27
2019-05-14T14:00:43.801Z,21.73
2019-05-14T14:03:11.587Z,21.20
2019-05-14T14:05:39.541Z,20.21
2019-05-14T14:08:08.759Z,19.19
2019-05-14T14:10:44.060Z,18.53
2019-05-14T14:13:10.640Z,17.54
2019-05-14T14:15:38.406Z,17.30
2019-05-14T14:18:05.976Z,17.15
2019-05-14T14:20:33.770Z,16.73
2019-05-14T14:23:17.487Z,16.57
2019-05-14T14:25:31.282Z,16.41
2019-05-14T14:28:00.389Z,16.37
2019-05-14T14:30:28.602Z,15.97
2019-05-14T14:32:58.695Z,16.25
2019-05-14T14:35:30.159Z,16.25
2019-05-14T14:37:59.130Z,16.10
2019-05-14T14:40:29.935Z,16.14
2019-05-14T14:42:59.353Z,16.02
2019-05-14T14:45:29.277Z,16.19
2019-05-14T14:47:56.011Z,16.16
2019-05-14T14:50:23.873Z,16.47
2019-05-14T14:52:51.699Z,16.96
2019-05-14T14:55:19.657Z,17.08
2019-05-14T14:57:53.593Z,16.90
2019-05-14T15:00:19.350Z,16.94
2019-05-14T15:02:49.564Z,16.96
2019-05-14T15:05:19.708Z,16.85
2019-05-14T15:07:49.654Z,16.21
2019-05-14T15:10:19.146Z,15.47
2019-05-14T15:12:49.444Z,15.23
2019-05-14T15:15:18.465Z,14.97
2019-05-14T15:17:48.349Z,14.66
2019-05-14T15:20:19.279Z,14.64
2019-05-14T15:22:48.687Z,14.60
2019-05-14T15:25:18.372Z,14.61
2019-05-14T15:27:45.488Z,14.71
2019-05-14T15:30:13.671Z,14.77
2019-05-14T15:32:41.501Z,14.83
2019-05-14T15:35:11.013Z,14.89
2019-05-14T15:37:42.620Z,14.92
2019-05-14T15:40:09.570Z,15.27
2019-05-14T15:42:39.437Z,15.50
2019-05-14T15:45:09.153Z,15.62
2019-05-14T15:47:38.903Z,15.50
2019-05-14T15:50:09.199Z,15.40
2019-05-14T15:52:39.474Z,15.16
2019-05-14T15:55:08.623Z,15.23
2019-05-14T15:57:39.361Z,15.36
2019-05-14T16:00:08.622Z,15.44
2019-05-14T16:02:39.183Z,15.68
2019-05-14T16:05:06.311Z,15.84
2019-05-14T16:07:34.127Z,15.68
2019-05-14T16:10:01.933Z,15.76
2019-05-14T16:12:32.313Z,15.68
2019-05-14T16:14:59.474Z,15.66
2019-05-14T16:17:30.191Z,15.75
2019-05-14T16:19:56.989Z,15.77
2019-05-14T16:22:24.826Z,15.72
2019-05-14T16:24:56.825Z,15.74
2019-05-14T16:27:22.366Z,15.66
2019-05-14T16:29:50.180Z,15.69
2019-05-14T16:32:18.030Z,15.74
2019-05-14T16:34:45.848Z,15.40
2019-05-14T16:37:13.740Z,15.43
2019-05-14T16:39:41.598Z,15.66
2019-05-14T16:42:09.417Z,16.08
2019-05-14T16:44:39.106Z,15.90
2019-05-14T16:47:09.705Z,15.69
2019-05-14T16:49:36.729Z,15.50
2019-05-14T16:52:04.593Z,15.54
2019-05-14T16:54:32.380Z,15.50
2019-05-14T16:57:00.191Z,14.89
2019-05-14T16:59:29.472Z,14.48
2019-05-14T17:01:58.464Z,14.44
2019-05-14T17:04:26.433Z,14.57
2019-05-14T17:06:54.240Z,14.36
2019-05-14T17:09:22.056Z,14.27
2019-05-14T17:11:49.850Z,14.16
2019-05-14T17:14:18.381Z,14.08
2019-05-14T17:16:48.355Z,14.08
2019-05-14T17:19:18.630Z,14.04
2019-05-14T17:21:48.541Z,13.94
2019-05-14T17:24:15.505Z,13.91
2019-05-14T17:26:43.302Z,13.89
2019-05-14T17:29:11.108Z,13.93
2019-05-14T17:31:39.263Z,14.09
2019-05-14T17:34:08.708Z,14.05
2019-05-14T17:36:38.943Z,13.98
2019-05-14T17:39:08.646Z,13.79
2019-05-14T17:41:41.675Z,13.82
2019-05-14T17:44:06.306Z,13.68
2019-05-14T17:46:34.085Z,13.57
2019-05-14T17:49:03.305Z,13.54
2019-05-14T17:51:31.135Z,13.38
2019-05-14T17:53:58.969Z,13.29
2019-05-14T17:56:28.422Z,13.14
2019-05-14T17:58:57.971Z,13.04
2019-05-14T18:01:26.016Z,13.00
2019-05-14T18:03:53.794Z,12.93
2019-05-14T18:06:21.602Z,12.93
2019-05-14T18:08:49.506Z,12.91
2019-05-14T18:11:19.125Z,12.75
2019-05-14T18:13:48.525Z,12.52
2019-05-14T18:16:18.939Z,12.43
2019-05-14T18:18:49.141Z,12.42
2019-05-14T18:21:16.048Z,12.37
2019-05-14T18:23:43.919Z,12.21
2019-05-14T18:26:11.999Z,12.08
2019-05-14T18:28:39.849Z,12.01
2019-05-14T18:31:09.425Z,11.92
2019-05-14T18:33:39.829Z,11.89
2019-05-14T18:36:07.380Z,11.80
2019-05-14T18:38:35.226Z,11.81
2019-05-14T18:41:03.023Z,11.72
2019-05-14T18:43:30.893Z,11.64
2019-05-14T18:45:58.859Z,11.60
2019-05-14T18:48:28.928Z,11.54
2019-05-14T18:50:59.060Z,11.41
2019-05-14T18:53:28.135Z,11.37
2019-05-14T18:55:56.043Z,11.41
2019-05-14T18:58:26.062Z,11.38
2019-05-14T19:00:53.628Z,11.33
2019-05-14T19:03:21.435Z,11.25
2019-05-14T19:05:49.270Z,11.19
2019-05-14T19:08:17.929Z,11.12
2019-05-14T19:10:45.818Z,11.00
2019-05-14T19:13:13.645Z,10.96
2019-05-14T19:15:41.507Z,10.92
2019-05-14T19:18:09.319Z,10.90
2019-05-14T19:20:39.047Z,10.86
2019-05-14T19:23:08.101Z,10.90
2019-05-14T19:25:36.020Z,10.80
2019-05-14T19:28:03.870Z,10.71
2019-05-14T19:30:31.684Z,10.65
2019-05-14T19:32:59.535Z,10.60
2019-05-14T19:35:28.698Z,10.58
2019-05-14T19:37:59.274Z,10.54
2019-05-14T19:40:28.200Z,10.55
2019-05-14T19:42:56.188Z,10.56
2019-05-14T19:45:24.009Z,10.53
2019-05-14T19:47:51.861Z,10.48
2019-05-14T19:50:19.773Z,10.35
2019-05-14T19:52:48.721Z,10.27
2019-05-14T19:55:18.852Z,10.21
2019-05-14T19:57:48.794Z,10.11
2019-05-14T20:00:24.183Z,10.03
2019-05-14T20:02:52.027Z,9.98
2019-05-14T20:05:19.870Z,9.95
2019-05-14T20:07:49.068Z,9.89
2019-05-14T20:10:17.001Z,9.83
2019-05-14T20:12:44.872Z,9.78
2019-05-14T20:15:13.189Z,9.71
2019-05-14T20:17:40.997Z,9.70
2019-05-14T20:20:09.769Z,9.62
2019-05-14T20:22:39.175Z,9.66
2019-05-14T20:25:08.088Z,9.69
2019-05-14T20:27:39.062Z,9.62
2019-05-14T20:30:08.747Z,9.57
2019-05-14T20:32:36.724Z,9.57
2019-05-14T20:35:05.764Z,9.60
2019-05-14T20:37:33.654Z,9.59
2019-05-14T20:40:01.490Z,9.59
2019-05-14T20:42:29.376Z,9.55
2019-05-14T20:44:57.190Z,9.45
2019-05-14T20:47:25.017Z,9.44
2019-05-14T20:49:52.856Z,9.37
2019-05-14T20:52:20.733Z,9.27
2019-05-14T20:54:49.354Z,9.24
2019-05-14T20:57:24.403Z,9.14
2019-05-14T20:59:48.222Z,9.06
2019-05-14T21:02:18.602Z,8.95
2019-05-14T21:04:53.253Z,8.91
2019-05-14T21:07:15.741Z,8.86
2019-05-14T21:09:43.573Z,8.81
2019-05-14T21:12:11.467Z,8.81
2019-05-14T21:14:41.496Z,8.78
2019-05-14T21:17:09.043Z,8.69
2019-05-14T21:19:37.998Z,8.64
2019-05-14T21:22:08.223Z,8.59
2019-05-14T21:24:38.914Z,8.57
2019-05-14T21:27:05.522Z,8.54
2019-05-14T21:29:33.355Z,8.50
2019-05-14T21:32:01.644Z,8.48
2019-05-14T21:34:29.635Z,8.41
2019-05-14T21:36:58.522Z,8.42
2019-05-14T21:39:26.462Z,8.37
2019-05-14T21:41:54.312Z,8.44
2019-05-14T21:44:22.151Z,8.39
2019-05-14T21:46:49.971Z,8.32
2019-05-14T21:49:19.073Z,8.34
2019-05-14T21:51:48.268Z,8.24
2019-05-14T21:54:18.853Z,8.20
2019-05-14T21:56:49.360Z,8.16
2019-05-14T21:59:18.341Z,8.16
2019-05-14T22:01:48.447Z,8.11
2019-05-14T22:04:18.648Z,8.05
2019-05-14T22:06:45.996Z,8.00
2019-05-14T22:09:13.792Z,7.94
2019-05-14T22:11:41.614Z,7.87
2019-05-14T22:14:09.643Z,7.91
2019-05-14T22:16:38.131Z,7.84
2019-05-14T22:19:08.525Z,7.81
2019-05-14T22:21:38.590Z,7.71
2019-05-14T22:24:06.182Z,7.66
2019-05-14T22:26:34.072Z,7.64
2019-05-14T22:29:02.146Z,7.59
2019-05-14T22:31:30.006Z,7.54
2019-05-14T22:33:58.339Z,7.50
2019-05-14T22:36:29.076Z,7.48
2019-05-14T22:38:57.895Z,7.48
2019-05-14T22:41:25.897Z,7.42
2019-05-14T22:43:56.793Z,7.40
2019-05-14T22:46:23.781Z,7.39
2019-05-14T22:48:51.837Z,7.32
2019-05-14T22:51:20.989Z,7.25
2019-05-14T22:53:49.435Z,7.23
2019-05-14T22:56:17.503Z,7.22
2019-05-14T22:58:45.319Z,7.12
2019-05-14T23:01:15.015Z,7.13
2019-05-14T23:03:43.233Z,7.05
2019-05-14T23:06:11.074Z,7.03
2019-05-14T23:08:39.295Z,7.01
2019-05-14T23:11:08.685Z,6.99
2019-05-14T23:13:38.968Z,6.90
2019-05-14T23:16:08.223Z,6.85
2019-05-14T23:18:37.999Z,6.83
2019-05-14T23:21:08.596Z,6.79
2019-05-14T23:23:35.878Z,6.74
2019-05-14T23:26:03.978Z,6.69
2019-05-14T23:28:41.862Z,6.65
2019-05-14T23:31:01.689Z,6.63
2019-05-14T23:33:29.885Z,6.56
2019-05-14T23:35:58.092Z,6.51
2019-05-14T23:38:28.818Z,6.47
2019-05-14T23:40:58.748Z,6.44
2019-05-14T23:43:28.721Z,6.45
2019-05-14T23:45:58.377Z,6.43
2019-05-14T23:48:26.436Z,6.42
2019-05-14T23:50:54.529Z,6.46
2019-05-14T23:53:22.339Z,6.39
2019-05-14T23:55:50.322Z,6.31
2019-05-14T23:58:20.557Z,6.27
